sensor_id;sensor_type;location;lat;lon;timestamp;P1;durP1;ratioP1;P2;durP2;ratioP2
76125;SDS011;65174;48.138;21.002;2023-03-01T00:00:32;8.68;;;4.95;;
76125;SDS011;65174;48.138;21.002;2023-03-01T00:03:34;7.60;;;4.60;;
76125;SDS011;65174;48.138;21.002;2023-03-01T00:06:36;12.23;;;6.80;;
76125;SDS011;65174;48.138;21.002;2023-03-01T00:09:39;9.43;;;5.75;;
76125;SDS011;65174;48.138;21.002;2023-03-01T00:12:41;16.30;;;7.90;;
76125;SDS011;65174;48.138;21.002;2023-03-01T00:15:43;13.45;;;6.47;;
76125;SDS011;65174;48.138;21.002;2023-03-01T00:18:45;10.70;;;5.70;;
76125;SDS011;65174;48.138;21.002;2023-03-01T00:21:48;7.45;;;4.22;;
76125;SDS011;65174;48.138;21.002;2023-03-01T00:24:50;11.82;;;5.53;;
76125;SDS011;65174;48.138;21.002;2023-03-01T00:27:52;11.05;;;5.80;;
76125;SDS011;65174;48.138;21.002;2023-03-01T00:30:54;6.88;;;5.18;;
76125;SDS011;65174;48.138;21.002;2023-03-01T00:33:58;8.90;;;5.77;;
76125;SDS011;65174;48.138;21.002;2023-03-01T00:37:01;8.88;;;5.18;;
76125;SDS011;65174;48.138;21.002;2023-03-01T00:40:07;9.40;;;5.28;;
76125;SDS011;65174;48.138;21.002;2023-03-01T00:43:13;16.05;;;7.53;;
76125;SDS011;65174;48.138;21.002;2023-03-01T00:46:17;14.70;;;7.25;;
76125;SDS011;65174;48.138;21.002;2023-03-01T00:49:21;13.97;;;7.37;;
76125;SDS011;65174;48.138;21.002;2023-03-01T00:52:23;14.77;;;6.43;;
76125;SDS011;65174;48.138;21.002;2023-03-01T00:55:26;7.55;;;5.03;;
76125;SDS011;65174;48.138;21.002;2023-03-01T00:58:28;13.77;;;6.85;;
76125;SDS011;65174;48.138;21.002;2023-03-01T01:01:31;13.43;;;6.63;;
76125;SDS011;65174;48.138;21.002;2023-03-01T01:04:33;9.03;;;6.00;;
76125;SDS011;65174;48.138;21.002;2023-03-01T01:07:35;12.95;;;5.88;;
76125;SDS011;65174;48.138;21.002;2023-03-01T01:10:39;11.77;;;5.78;;
76125;SDS011;65174;48.138;21.002;2023-03-01T01:13:41;13.63;;;6.22;;
76125;SDS011;65174;48.138;21.002;2023-03-01T01:16:45;13.20;;;6.97;;
76125;SDS011;65174;48.138;21.002;2023-03-01T01:19:47;11.73;;;5.50;;
76125;SDS011;65174;48.138;21.002;2023-03-01T01:22:49;9.13;;;5.40;;
76125;SDS011;65174;48.138;21.002;2023-03-01T01:25:51;13.73;;;6.18;;
76125;SDS011;65174;48.138;21.002;2023-03-01T01:28:53;14.43;;;6.53;;
76125;SDS011;65174;48.138;21.002;2023-03-01T01:31:56;21.55;;;7.60;;
76125;SDS011;65174;48.138;21.002;2023-03-01T01:34:58;10.03;;;5.80;;
76125;SDS011;65174;48.138;21.002;2023-03-01T01:38:00;9.73;;;5.28;;
76125;SDS011;65174;48.138;21.002;2023-03-01T01:41:02;11.18;;;5.72;;
76125;SDS011;65174;48.138;21.002;2023-03-01T01:44:13;12.10;;;5.18;;
76125;SDS011;65174;48.138;21.002;2023-03-01T01:47:20;13.97;;;5.80;;
76125;SDS011;65174;48.138;21.002;2023-03-01T01:50:25;8.27;;;4.77;;
76125;SDS011;65174;48.138;21.002;2023-03-01T01:53:28;12.65;;;6.47;;
76125;SDS011;65174;48.138;21.002;2023-03-01T01:56:30;9.55;;;5.45;;
76125;SDS011;65174;48.138;21.002;2023-03-01T01:59:33;9.93;;;5.28;;
76125;SDS011;65174;48.138;21.002;2023-03-01T02:02:36;12.40;;;6.87;;
76125;SDS011;65174;48.138;21.002;2023-03-01T02:08:57;8.65;;;4.70;;
76125;SDS011;65174;48.138;21.002;2023-03-01T02:12:03;10.00;;;6.20;;
76125;SDS011;65174;48.138;21.002;2023-03-01T02:15:06;11.63;;;5.22;;
76125;SDS011;65174;48.138;21.002;2023-03-01T02:18:10;10.70;;;5.35;;
76125;SDS011;65174;48.138;21.002;2023-03-01T02:27:40;28.67;;;12.10;;
76125;SDS011;65174;48.138;21.002;2023-03-01T02:30:53;14.90;;;7.32;;
76125;SDS011;65174;48.138;21.002;2023-03-01T02:34:18;10.73;;;5.57;;
76125;SDS011;65174;48.138;21.002;2023-03-01T02:37:22;14.10;;;6.10;;
76125;SDS011;65174;48.138;21.002;2023-03-01T02:40:33;10.57;;;4.55;;
76125;SDS011;65174;48.138;21.002;2023-03-01T02:43:36;8.82;;;5.43;;
76125;SDS011;65174;48.138;21.002;2023-03-01T02:46:57;10.02;;;4.72;;
76125;SDS011;65174;48.138;21.002;2023-03-01T02:50:10;8.07;;;4.37;;
76125;SDS011;65174;48.138;21.002;2023-03-01T02:53:31;12.10;;;6.00;;
76125;SDS011;65174;48.138;21.002;2023-03-01T02:57:01;9.27;;;5.32;;
76125;SDS011;65174;48.138;21.002;2023-03-01T03:00:09;10.18;;;4.80;;
76125;SDS011;65174;48.138;21.002;2023-03-01T03:03:21;10.55;;;4.97;;
76125;SDS011;65174;48.138;21.002;2023-03-01T03:06:23;7.85;;;4.07;;
76125;SDS011;65174;48.138;21.002;2023-03-01T03:09:26;8.10;;;4.93;;
76125;SDS011;65174;48.138;21.002;2023-03-01T03:12:30;7.05;;;4.25;;
76125;SDS011;65174;48.138;21.002;2023-03-01T03:15:32;7.10;;;4.38;;
76125;SDS011;65174;48.138;21.002;2023-03-01T03:18:37;10.27;;;5.32;;
76125;SDS011;65174;48.138;21.002;2023-03-01T03:21:39;9.90;;;5.50;;
76125;SDS011;65174;48.138;21.002;2023-03-01T03:24:41;7.97;;;4.07;;
76125;SDS011;65174;48.138;21.002;2023-03-01T03:27:43;7.28;;;4.38;;
76125;SDS011;65174;48.138;21.002;2023-03-01T03:30:47;9.82;;;5.40;;
76125;SDS011;65174;48.138;21.002;2023-03-01T03:33:49;9.43;;;4.18;;
76125;SDS011;65174;48.138;21.002;2023-03-01T03:36:54;7.18;;;4.10;;
76125;SDS011;65174;48.138;21.002;2023-03-01T03:40:01;9.27;;;4.27;;
76125;SDS011;65174;48.138;21.002;2023-03-01T03:43:03;11.20;;;5.93;;
76125;SDS011;65174;48.138;21.002;2023-03-01T03:46:07;5.00;;;3.28;;
76125;SDS011;65174;48.138;21.002;2023-03-01T03:49:09;10.63;;;4.35;;
76125;SDS011;65174;48.138;21.002;2023-03-01T03:52:11;7.22;;;3.50;;
76125;SDS011;65174;48.138;21.002;2023-03-01T03:55:14;9.87;;;3.97;;
76125;SDS011;65174;48.138;21.002;2023-03-01T03:58:21;6.60;;;3.75;;
76125;SDS011;65174;48.138;21.002;2023-03-01T04:01:24;8.30;;;4.35;;
76125;SDS011;65174;48.138;21.002;2023-03-01T04:04:26;6.18;;;3.20;;
76125;SDS011;65174;48.138;21.002;2023-03-01T04:07:28;7.25;;;3.53;;
76125;SDS011;65174;48.138;21.002;2023-03-01T04:10:32;6.80;;;3.77;;
76125;SDS011;65174;48.138;21.002;2023-03-01T04:13:39;6.38;;;3.13;;
76125;SDS011;65174;48.138;21.002;2023-03-01T04:16:41;5.85;;;3.22;;
76125;SDS011;65174;48.138;21.002;2023-03-01T04:19:43;6.63;;;3.33;;
76125;SDS011;65174;48.138;21.002;2023-03-01T04:22:45;5.70;;;3.03;;
76125;SDS011;65174;48.138;21.002;2023-03-01T04:25:52;6.53;;;3.70;;
76125;SDS011;65174;48.138;21.002;2023-03-01T04:28:55;8.02;;;3.80;;
76125;SDS011;65174;48.138;21.002;2023-03-01T04:31:57;5.53;;;3.75;;
76125;SDS011;65174;48.138;21.002;2023-03-01T04:35:00;4.03;;;2.50;;
76125;SDS011;65174;48.138;21.002;2023-03-01T04:38:03;2.20;;;1.80;;
76125;SDS011;65174;48.138;21.002;2023-03-01T04:41:08;7.53;;;2.43;;
76125;SDS011;65174;48.138;21.002;2023-03-01T04:44:12;5.95;;;3.00;;
76125;SDS011;65174;48.138;21.002;2023-03-01T04:47:14;5.43;;;3.10;;
76125;SDS011;65174;48.138;21.002;2023-03-01T04:50:16;5.70;;;3.38;;
76125;SDS011;65174;48.138;21.002;2023-03-01T04:53:19;7.90;;;4.63;;
76125;SDS011;65174;48.138;21.002;2023-03-01T04:56:21;6.70;;;3.77;;
76125;SDS011;65174;48.138;21.002;2023-03-01T04:59:24;7.03;;;3.97;;
76125;SDS011;65174;48.138;21.002;2023-03-01T05:02:27;7.72;;;4.25;;
76125;SDS011;65174;48.138;21.002;2023-03-01T05:05:30;7.03;;;4.20;;
76125;SDS011;65174;48.138;21.002;2023-03-01T05:08:38;6.47;;;3.90;;
76125;SDS011;65174;48.138;21.002;2023-03-01T05:11:41;7.20;;;3.57;;
76125;SDS011;65174;48.138;21.002;2023-03-01T05:14:43;6.30;;;3.88;;
76125;SDS011;65174;48.138;21.002;2023-03-01T05:17:45;5.78;;;3.50;;
76125;SDS011;65174;48.138;21.002;2023-03-01T05:20:49;6.75;;;3.45;;
76125;SDS011;65174;48.138;21.002;2023-03-01T05:23:51;4.13;;;2.97;;
76125;SDS011;65174;48.138;21.002;2023-03-01T05:26:53;3.47;;;2.60;;
76125;SDS011;65174;48.138;21.002;2023-03-01T05:29:56;4.32;;;2.78;;
76125;SDS011;65174;48.138;21.002;2023-03-01T05:32:58;4.00;;;2.85;;
76125;SDS011;65174;48.138;21.002;2023-03-01T05:36:00;7.05;;;3.05;;
76125;SDS011;65174;48.138;21.002;2023-03-01T05:39:02;4.43;;;2.97;;
76125;SDS011;65174;48.138;21.002;2023-03-01T05:42:04;7.80;;;3.57;;
76125;SDS011;65174;48.138;21.002;2023-03-01T05:45:07;4.15;;;2.38;;
76125;SDS011;65174;48.138;21.002;2023-03-01T05:48:16;6.57;;;2.97;;
76125;SDS011;65174;48.138;21.002;2023-03-01T05:51:41;10.90;;;3.70;;
76125;SDS011;65174;48.138;21.002;2023-03-01T05:55:04;4.47;;;2.43;;
76125;SDS011;65174;48.138;21.002;2023-03-01T05:58:07;6.77;;;3.43;;
76125;SDS011;65174;48.138;21.002;2023-03-01T06:01:12;5.82;;;3.70;;
76125;SDS011;65174;48.138;21.002;2023-03-01T06:04:15;4.32;;;3.17;;
76125;SDS011;65174;48.138;21.002;2023-03-01T06:07:17;4.85;;;3.10;;
76125;SDS011;65174;48.138;21.002;2023-03-01T06:10:20;5.38;;;3.17;;
76125;SDS011;65174;48.138;21.002;2023-03-01T06:13:23;5.13;;;3.00;;
76125;SDS011;65174;48.138;21.002;2023-03-01T06:16:25;3.00;;;1.73;;
76125;SDS011;65174;48.138;21.002;2023-03-01T06:19:27;5.57;;;3.78;;
76125;SDS011;65174;48.138;21.002;2023-03-01T06:22:29;5.43;;;3.35;;
76125;SDS011;65174;48.138;21.002;2023-03-01T06:25:31;5.40;;;3.22;;
76125;SDS011;65174;48.138;21.002;2023-03-01T06:28:34;6.63;;;3.90;;
76125;SDS011;65174;48.138;21.002;2023-03-01T06:31:36;4.40;;;2.38;;
76125;SDS011;65174;48.138;21.002;2023-03-01T06:34:38;5.45;;;3.05;;
76125;SDS011;65174;48.138;21.002;2023-03-01T06:37:41;7.50;;;3.05;;
76125;SDS011;65174;48.138;21.002;2023-03-01T06:40:43;4.05;;;2.70;;
76125;SDS011;65174;48.138;21.002;2023-03-01T06:43:46;5.03;;;3.00;;
76125;SDS011;65174;48.138;21.002;2023-03-01T06:46:48;4.13;;;3.15;;
76125;SDS011;65174;48.138;21.002;2023-03-01T06:49:50;9.20;;;3.72;;
76125;SDS011;65174;48.138;21.002;2023-03-01T06:52:55;5.07;;;3.10;;
76125;SDS011;65174;48.138;21.002;2023-03-01T06:55:58;7.18;;;4.40;;
76125;SDS011;65174;48.138;21.002;2023-03-01T06:59:02;6.83;;;4.13;;
76125;SDS011;65174;48.138;21.002;2023-03-01T07:02:08;7.72;;;4.20;;
76125;SDS011;65174;48.138;21.002;2023-03-01T07:05:16;6.00;;;3.00;;
76125;SDS011;65174;48.138;21.002;2023-03-01T07:08:20;5.18;;;3.08;;
76125;SDS011;65174;48.138;21.002;2023-03-01T07:11:30;3.28;;;2.40;;
76125;SDS011;65174;48.138;21.002;2023-03-01T07:14:34;4.93;;;3.00;;
76125;SDS011;65174;48.138;21.002;2023-03-01T07:17:40;6.25;;;3.83;;
76125;SDS011;65174;48.138;21.002;2023-03-01T07:20:44;4.28;;;2.92;;
76125;SDS011;65174;48.138;21.002;2023-03-01T07:24:08;4.93;;;2.95;;
76125;SDS011;65174;48.138;21.002;2023-03-01T07:27:34;3.85;;;2.78;;
76125;SDS011;65174;48.138;21.002;2023-03-01T07:31:00;4.00;;;2.43;;
76125;SDS011;65174;48.138;21.002;2023-03-01T07:34:27;4.90;;;2.85;;
76125;SDS011;65174;48.138;21.002;2023-03-01T07:37:50;4.47;;;3.17;;
76125;SDS011;65174;48.138;21.002;2023-03-01T07:41:13;8.57;;;4.03;;
76125;SDS011;65174;48.138;21.002;2023-03-01T07:44:16;7.57;;;3.92;;
76125;SDS011;65174;48.138;21.002;2023-03-01T07:47:19;8.43;;;4.57;;
76125;SDS011;65174;48.138;21.002;2023-03-01T07:50:25;8.68;;;4.70;;
76125;SDS011;65174;48.138;21.002;2023-03-01T07:53:29;10.35;;;5.65;;
76125;SDS011;65174;48.138;21.002;2023-03-01T07:56:34;8.05;;;3.83;;
76125;SDS011;65174;48.138;21.002;2023-03-01T07:59:38;7.80;;;4.40;;
76125;SDS011;65174;48.138;21.002;2023-03-01T08:02:43;7.10;;;4.17;;
76125;SDS011;65174;48.138;21.002;2023-03-01T08:05:55;5.97;;;3.83;;
76125;SDS011;65174;48.138;21.002;2023-03-01T08:09:09;10.88;;;4.93;;
76125;SDS011;65174;48.138;21.002;2023-03-01T08:12:21;9.10;;;4.80;;
76125;SDS011;65174;48.138;21.002;2023-03-01T08:15:27;8.68;;;4.30;;
76125;SDS011;65174;48.138;21.002;2023-03-01T08:18:35;6.77;;;3.83;;
76125;SDS011;65174;48.138;21.002;2023-03-01T08:21:39;6.55;;;4.35;;
76125;SDS011;65174;48.138;21.002;2023-03-01T08:24:48;6.32;;;3.50;;
76125;SDS011;65174;48.138;21.002;2023-03-01T08:27:53;7.18;;;3.80;;
76125;SDS011;65174;48.138;21.002;2023-03-01T08:30:57;6.20;;;3.10;;
76125;SDS011;65174;48.138;21.002;2023-03-01T08:34:07;7.37;;;3.47;;
76125;SDS011;65174;48.138;21.002;2023-03-01T08:37:13;4.18;;;2.90;;
76125;SDS011;65174;48.138;21.002;2023-03-01T08:40:20;9.80;;;5.15;;
76125;SDS011;65174;48.138;21.002;2023-03-01T08:43:24;11.55;;;5.85;;
76125;SDS011;65174;48.138;21.002;2023-03-01T08:46:29;8.50;;;5.68;;
76125;SDS011;65174;48.138;21.002;2023-03-01T09:04:16;9.85;;;5.28;;
76125;SDS011;65174;48.138;21.002;2023-03-01T09:07:26;10.35;;;5.53;;
76125;SDS011;65174;48.138;21.002;2023-03-01T09:10:31;10.70;;;6.30;;
76125;SDS011;65174;48.138;21.002;2023-03-01T09:13:41;6.63;;;3.97;;
76125;SDS011;65174;48.138;21.002;2023-03-01T09:16:46;6.90;;;3.53;;
76125;SDS011;65174;48.138;21.002;2023-03-01T09:19:54;8.30;;;4.90;;
76125;SDS011;65174;48.138;21.002;2023-03-01T09:23:02;7.30;;;4.40;;
76125;SDS011;65174;48.138;21.002;2023-03-01T09:26:17;6.70;;;4.43;;
76125;SDS011;65174;48.138;21.002;2023-03-01T09:29:24;9.60;;;5.30;;
76125;SDS011;65174;48.138;21.002;2023-03-01T09:32:34;8.18;;;4.35;;
76125;SDS011;65174;48.138;21.002;2023-03-01T09:36:03;7.07;;;5.07;;
76125;SDS011;65174;48.138;21.002;2023-03-01T09:39:11;10.30;;;5.57;;
76125;SDS011;65174;48.138;21.002;2023-03-01T09:42:15;15.87;;;5.63;;
76125;SDS011;65174;48.138;21.002;2023-03-01T09:45:28;15.00;;;5.65;;
76125;SDS011;65174;48.138;21.002;2023-03-01T09:48:44;14.77;;;5.25;;
76125;SDS011;65174;48.138;21.002;2023-03-01T09:55:34;12.77;;;6.03;;
76125;SDS011;65174;48.138;21.002;2023-03-01T10:02:03;10.95;;;5.13;;
76125;SDS011;65174;48.138;21.002;2023-03-01T10:11:50;9.13;;;4.72;;
76125;SDS011;65174;48.138;21.002;2023-03-01T10:18:19;10.30;;;5.00;;
76125;SDS011;65174;48.138;21.002;2023-03-01T10:21:26;11.70;;;4.88;;
76125;SDS011;65174;48.138;21.002;2023-03-01T10:24:35;6.63;;;3.55;;
76125;SDS011;65174;48.138;21.002;2023-03-01T10:27:44;10.32;;;5.53;;
76125;SDS011;65174;48.138;21.002;2023-03-01T10:30:55;12.27;;;4.97;;
76125;SDS011;65174;48.138;21.002;2023-03-01T10:34:01;19.55;;;5.95;;
76125;SDS011;65174;48.138;21.002;2023-03-01T10:37:09;10.38;;;4.90;;
76125;SDS011;65174;48.138;21.002;2023-03-01T10:40:16;8.13;;;4.97;;
76125;SDS011;65174;48.138;21.002;2023-03-01T10:43:23;8.80;;;4.75;;
76125;SDS011;65174;48.138;21.002;2023-03-01T10:46:29;7.00;;;3.97;;
76125;SDS011;65174;48.138;21.002;2023-03-01T10:49:35;11.50;;;5.82;;
76125;SDS011;65174;48.138;21.002;2023-03-01T10:52:40;7.65;;;4.75;;
76125;SDS011;65174;48.138;21.002;2023-03-01T10:55:45;8.25;;;4.15;;
76125;SDS011;65174;48.138;21.002;2023-03-01T11:05:26;7.13;;;3.95;;
76125;SDS011;65174;48.138;21.002;2023-03-01T11:08:42;9.23;;;4.68;;
76125;SDS011;65174;48.138;21.002;2023-03-01T11:11:54;6.47;;;2.58;;
76125;SDS011;65174;48.138;21.002;2023-03-01T11:14:58;8.32;;;4.25;;
76125;SDS011;65174;48.138;21.002;2023-03-01T11:18:02;8.37;;;4.20;;
76125;SDS011;65174;48.138;21.002;2023-03-01T11:21:15;7.18;;;4.20;;
76125;SDS011;65174;48.138;21.002;2023-03-01T11:24:20;8.07;;;3.33;;
76125;SDS011;65174;48.138;21.002;2023-03-01T11:27:32;7.85;;;3.97;;
76125;SDS011;65174;48.138;21.002;2023-03-01T11:34:11;7.80;;;3.83;;
76125;SDS011;65174;48.138;21.002;2023-03-01T11:47:22;8.63;;;4.43;;
76125;SDS011;65174;48.138;21.002;2023-03-01T11:50:55;6.50;;;3.47;;
76125;SDS011;65174;48.138;21.002;2023-03-01T12:04:11;5.65;;;2.50;;
76125;SDS011;65174;48.138;21.002;2023-03-01T12:08:29;4.20;;;2.83;;
76125;SDS011;65174;48.138;21.002;2023-03-01T12:24:39;3.03;;;2.17;;
76125;SDS011;65174;48.138;21.002;2023-03-01T12:41:42;3.03;;;1.63;;
76125;SDS011;65174;48.138;21.002;2023-03-01T12:48:29;2.13;;;1.48;;
76125;SDS011;65174;48.138;21.002;2023-03-01T12:51:50;1.75;;;1.30;;
76125;SDS011;65174;48.138;21.002;2023-03-01T12:55:00;1.88;;;1.10;;
76125;SDS011;65174;48.138;21.002;2023-03-01T13:02:38;4.13;;;1.30;;
76125;SDS011;65174;48.138;21.002;2023-03-01T13:10:45;2.20;;;1.25;;
76125;SDS011;65174;48.138;21.002;2023-03-01T13:14:45;4.40;;;1.67;;
76125;SDS011;65174;48.138;21.002;2023-03-01T13:18:46;1.80;;;1.07;;
76125;SDS011;65174;48.138;21.002;2023-03-01T13:22:59;4.43;;;1.50;;
76125;SDS011;65174;48.138;21.002;2023-03-01T13:30:38;1.63;;;1.17;;
76125;SDS011;65174;48.138;21.002;2023-03-01T13:36:47;1.47;;;1.07;;
76125;SDS011;65174;48.138;21.002;2023-03-01T13:39:50;2.28;;;1.17;;
76125;SDS011;65174;48.138;21.002;2023-03-01T13:42:53;2.20;;;1.42;;
76125;SDS011;65174;48.138;21.002;2023-03-01T13:46:15;1.50;;;1.17;;
76125;SDS011;65174;48.138;21.002;2023-03-01T13:49:24;1.27;;;0.90;;
76125;SDS011;65174;48.138;21.002;2023-03-01T13:52:43;1.77;;;1.30;;
76125;SDS011;65174;48.138;21.002;2023-03-01T13:55:48;2.25;;;1.25;;
76125;SDS011;65174;48.138;21.002;2023-03-01T13:58:58;2.50;;;1.52;;
76125;SDS011;65174;48.138;21.002;2023-03-01T14:02:10;3.03;;;1.77;;
76125;SDS011;65174;48.138;21.002;2023-03-01T14:05:13;4.20;;;2.45;;
76125;SDS011;65174;48.138;21.002;2023-03-01T14:08:23;7.73;;;2.50;;
76125;SDS011;65174;48.138;21.002;2023-03-01T14:14:34;3.90;;;2.08;;
76125;SDS011;65174;48.138;21.002;2023-03-01T14:17:52;4.13;;;1.90;;
76125;SDS011;65174;48.138;21.002;2023-03-01T14:21:07;5.28;;;2.80;;
76125;SDS011;65174;48.138;21.002;2023-03-01T14:24:17;6.47;;;2.80;;
76125;SDS011;65174;48.138;21.002;2023-03-01T14:27:23;14.32;;;5.28;;
76125;SDS011;65174;48.138;21.002;2023-03-01T14:30:40;5.30;;;3.08;;
76125;SDS011;65174;48.138;21.002;2023-03-01T14:33:44;7.55;;;3.28;;
76125;SDS011;65174;48.138;21.002;2023-03-01T14:36:56;5.35;;;2.50;;
76125;SDS011;65174;48.138;21.002;2023-03-01T14:39:59;8.33;;;3.90;;
76125;SDS011;65174;48.138;21.002;2023-03-01T14:43:03;7.65;;;3.25;;
76125;SDS011;65174;48.138;21.002;2023-03-01T14:46:32;6.18;;;3.47;;
76125;SDS011;65174;48.138;21.002;2023-03-01T14:49:38;8.32;;;4.22;;
76125;SDS011;65174;48.138;21.002;2023-03-01T14:52:41;10.32;;;4.28;;
76125;SDS011;65174;48.138;21.002;2023-03-01T14:55:47;5.47;;;3.20;;
76125;SDS011;65174;48.138;21.002;2023-03-01T14:58:57;7.47;;;4.03;;
76125;SDS011;65174;48.138;21.002;2023-03-01T15:02:00;5.35;;;3.08;;
76125;SDS011;65174;48.138;21.002;2023-03-01T15:05:03;10.23;;;3.63;;
76125;SDS011;65174;48.138;21.002;2023-03-01T15:08:16;7.80;;;3.70;;
76125;SDS011;65174;48.138;21.002;2023-03-01T15:11:29;9.77;;;4.00;;
76125;SDS011;65174;48.138;21.002;2023-03-01T15:14:39;14.45;;;4.40;;
76125;SDS011;65174;48.138;21.002;2023-03-01T15:17:59;10.68;;;4.95;;
76125;SDS011;65174;48.138;21.002;2023-03-01T15:21:06;18.52;;;8.90;;
76125;SDS011;65174;48.138;21.002;2023-03-01T15:24:17;18.23;;;9.20;;
76125;SDS011;65174;48.138;21.002;2023-03-01T15:27:30;13.20;;;6.10;;
76125;SDS011;65174;48.138;21.002;2023-03-01T15:30:33;8.98;;;4.47;;
76125;SDS011;65174;48.138;21.002;2023-03-01T15:33:39;7.93;;;4.20;;
76125;SDS011;65174;48.138;21.002;2023-03-01T15:36:49;6.47;;;3.70;;
76125;SDS011;65174;48.138;21.002;2023-03-01T15:39:55;7.72;;;4.03;;
76125;SDS011;65174;48.138;21.002;2023-03-01T15:42:59;48.97;;;12.53;;
76125;SDS011;65174;48.138;21.002;2023-03-01T15:46:01;14.75;;;8.23;;
76125;SDS011;65174;48.138;21.002;2023-03-01T15:49:26;15.27;;;7.78;;
76125;SDS011;65174;48.138;21.002;2023-03-01T15:52:40;16.63;;;7.50;;
76125;SDS011;65174;48.138;21.002;2023-03-01T15:55:44;20.80;;;9.00;;
76125;SDS011;65174;48.138;21.002;2023-03-01T15:58:48;23.87;;;7.47;;
76125;SDS011;65174;48.138;21.002;2023-03-01T16:01:50;11.57;;;5.30;;
76125;SDS011;65174;48.138;21.002;2023-03-01T16:04:52;17.85;;;7.95;;
76125;SDS011;65174;48.138;21.002;2023-03-01T16:07:55;17.67;;;8.80;;
76125;SDS011;65174;48.138;21.002;2023-03-01T16:10:58;16.17;;;9.52;;
76125;SDS011;65174;48.138;21.002;2023-03-01T16:14:00;13.47;;;6.33;;
76125;SDS011;65174;48.138;21.002;2023-03-01T16:17:02;12.10;;;4.72;;
76125;SDS011;65174;48.138;21.002;2023-03-01T16:20:04;11.55;;;4.15;;
76125;SDS011;65174;48.138;21.002;2023-03-01T16:23:15;15.13;;;5.60;;
76125;SDS011;65174;48.138;21.002;2023-03-01T16:26:18;9.80;;;5.20;;
76125;SDS011;65174;48.138;21.002;2023-03-01T16:29:22;12.77;;;5.10;;
76125;SDS011;65174;48.138;21.002;2023-03-01T16:32:24;9.48;;;5.05;;
76125;SDS011;65174;48.138;21.002;2023-03-01T16:35:26;10.68;;;4.20;;
76125;SDS011;65174;48.138;21.002;2023-03-01T16:38:29;7.53;;;3.63;;
76125;SDS011;65174;48.138;21.002;2023-03-01T16:41:33;9.98;;;3.60;;
76125;SDS011;65174;48.138;21.002;2023-03-01T16:44:35;7.00;;;3.47;;
76125;SDS011;65174;48.138;21.002;2023-03-01T16:47:37;8.60;;;4.00;;
76125;SDS011;65174;48.138;21.002;2023-03-01T16:50:39;5.55;;;3.13;;
76125;SDS011;65174;48.138;21.002;2023-03-01T16:53:42;9.38;;;4.22;;
76125;SDS011;65174;48.138;21.002;2023-03-01T16:56:47;9.15;;;3.30;;
76125;SDS011;65174;48.138;21.002;2023-03-01T16:59:53;13.90;;;3.80;;
76125;SDS011;65174;48.138;21.002;2023-03-01T17:02:55;9.00;;;3.25;;
76125;SDS011;65174;48.138;21.002;2023-03-01T17:06:00;6.45;;;3.03;;
76125;SDS011;65174;48.138;21.002;2023-03-01T17:09:03;8.95;;;2.90;;
76125;SDS011;65174;48.138;21.002;2023-03-01T17:12:06;4.07;;;2.28;;
76125;SDS011;65174;48.138;21.002;2023-03-01T17:15:08;6.13;;;2.80;;
76125;SDS011;65174;48.138;21.002;2023-03-01T17:18:11;5.65;;;2.65;;
76125;SDS011;65174;48.138;21.002;2023-03-01T17:21:13;7.70;;;2.88;;
76125;SDS011;65174;48.138;21.002;2023-03-01T17:24:16;5.28;;;3.17;;
76125;SDS011;65174;48.138;21.002;2023-03-01T17:27:25;7.15;;;3.78;;
76125;SDS011;65174;48.138;21.002;2023-03-01T17:30:28;9.67;;;6.30;;
76125;SDS011;65174;48.138;21.002;2023-03-01T17:33:31;9.98;;;4.82;;
76125;SDS011;65174;48.138;21.002;2023-03-01T17:36:34;8.95;;;3.58;;
76125;SDS011;65174;48.138;21.002;2023-03-01T17:39:44;5.05;;;2.85;;
76125;SDS011;65174;48.138;21.002;2023-03-01T17:42:46;8.40;;;4.30;;
76125;SDS011;65174;48.138;21.002;2023-03-01T17:45:48;8.97;;;3.93;;
76125;SDS011;65174;48.138;21.002;2023-03-01T17:48:52;6.63;;;3.17;;
76125;SDS011;65174;48.138;21.002;2023-03-01T17:51:54;11.02;;;4.22;;
76125;SDS011;65174;48.138;21.002;2023-03-01T17:54:57;9.65;;;4.10;;
76125;SDS011;65174;48.138;21.002;2023-03-01T17:57:59;10.30;;;4.90;;
76125;SDS011;65174;48.138;21.002;2023-03-01T18:01:11;12.17;;;5.27;;
76125;SDS011;65174;48.138;21.002;2023-03-01T18:04:21;7.47;;;4.20;;
76125;SDS011;65174;48.138;21.002;2023-03-01T18:07:26;9.60;;;5.57;;
76125;SDS011;65174;48.138;21.002;2023-03-01T18:10:30;11.63;;;5.18;;
76125;SDS011;65174;48.138;21.002;2023-03-01T18:13:33;7.95;;;4.78;;
76125;SDS011;65174;48.138;21.002;2023-03-01T18:16:36;46.50;;;19.53;;
76125;SDS011;65174;48.138;21.002;2023-03-01T18:19:40;25.60;;;11.45;;
76125;SDS011;65174;48.138;21.002;2023-03-01T18:22:42;27.55;;;12.00;;
76125;SDS011;65174;48.138;21.002;2023-03-01T18:25:44;13.95;;;5.45;;
76125;SDS011;65174;48.138;21.002;2023-03-01T18:28:47;23.63;;;8.32;;
76125;SDS011;65174;48.138;21.002;2023-03-01T18:32:02;16.73;;;6.10;;
76125;SDS011;65174;48.138;21.002;2023-03-01T18:35:05;9.70;;;4.40;;
76125;SDS011;65174;48.138;21.002;2023-03-01T18:38:08;19.25;;;7.97;;
76125;SDS011;65174;48.138;21.002;2023-03-01T18:41:10;18.63;;;8.35;;
76125;SDS011;65174;48.138;21.002;2023-03-01T18:44:12;12.15;;;6.25;;
76125;SDS011;65174;48.138;21.002;2023-03-01T18:47:18;11.07;;;6.17;;
76125;SDS011;65174;48.138;21.002;2023-03-01T18:50:21;13.55;;;6.30;;
76125;SDS011;65174;48.138;21.002;2023-03-01T18:53:23;18.38;;;9.20;;
76125;SDS011;65174;48.138;21.002;2023-03-01T18:56:25;16.75;;;8.68;;
76125;SDS011;65174;48.138;21.002;2023-03-01T18:59:30;18.23;;;8.68;;
76125;SDS011;65174;48.138;21.002;2023-03-01T19:02:33;17.47;;;8.30;;
76125;SDS011;65174;48.138;21.002;2023-03-01T19:05:35;18.95;;;8.35;;
76125;SDS011;65174;48.138;21.002;2023-03-01T19:08:42;14.55;;;7.15;;
76125;SDS011;65174;48.138;21.002;2023-03-01T19:11:45;19.00;;;8.18;;
76125;SDS011;65174;48.138;21.002;2023-03-01T19:14:47;18.38;;;9.48;;
76125;SDS011;65174;48.138;21.002;2023-03-01T19:17:49;22.17;;;8.67;;
76125;SDS011;65174;48.138;21.002;2023-03-01T19:20:58;23.17;;;9.30;;
76125;SDS011;65174;48.138;21.002;2023-03-01T19:24:05;18.55;;;8.63;;
76125;SDS011;65174;48.138;21.002;2023-03-01T19:27:08;11.18;;;5.85;;
76125;SDS011;65174;48.138;21.002;2023-03-01T19:30:10;13.90;;;7.10;;
76125;SDS011;65174;48.138;21.002;2023-03-01T19:33:13;12.33;;;6.77;;
76125;SDS011;65174;48.138;21.002;2023-03-01T19:36:16;18.77;;;6.88;;
76125;SDS011;65174;48.138;21.002;2023-03-01T19:39:19;7.50;;;4.68;;
76125;SDS011;65174;48.138;21.002;2023-03-01T19:42:21;12.20;;;6.95;;
76125;SDS011;65174;48.138;21.002;2023-03-01T19:45:28;12.70;;;7.80;;
76125;SDS011;65174;48.138;21.002;2023-03-01T19:48:34;13.20;;;6.67;;
76125;SDS011;65174;48.138;21.002;2023-03-01T19:51:37;16.00;;;7.35;;
76125;SDS011;65174;48.138;21.002;2023-03-01T19:54:40;15.75;;;7.68;;
76125;SDS011;65174;48.138;21.002;2023-03-01T19:57:42;15.48;;;6.10;;
76125;SDS011;65174;48.138;21.002;2023-03-01T20:00:45;13.43;;;7.17;;
76125;SDS011;65174;48.138;21.002;2023-03-01T20:03:48;14.13;;;6.60;;
76125;SDS011;65174;48.138;21.002;2023-03-01T20:06:50;13.45;;;6.05;;
76125;SDS011;65174;48.138;21.002;2023-03-01T20:09:52;13.23;;;6.75;;
76125;SDS011;65174;48.138;21.002;2023-03-01T20:12:54;13.23;;;6.75;;
76125;SDS011;65174;48.138;21.002;2023-03-01T20:15:56;12.90;;;7.13;;
76125;SDS011;65174;48.138;21.002;2023-03-01T20:18:59;10.83;;;5.97;;
76125;SDS011;65174;48.138;21.002;2023-03-01T20:22:01;9.85;;;5.55;;